Latest Weather Observations for Christmas Island

IDW60801

Issued at 5:33 am WST Tuesday 7 December 2021 (issued every 10 minutes, with the page automatically refreshed every 10 minutes)

About weather observations | Map of weather stations | Latest weather observations for WA | Other Formats
Station Details ID: 200790 Name: CHRISTMAS ISLAND AERO Lat: -10.45 Lon: 105.69 Height: 261.0 m
Data from the previous 72 hours. | See also: Recent months at Christmas Island
Date/Time
WST
Temp
°C
App
Temp
°C
Dew
Point
°C
Rel
Hum
%
Delta-T
°C
Wind Press
QNH
hPa
Press
MSL
hPa
Rain since
9am
mm
Dir  Spd
km/h
Gust
km/h
Spd
kts
Gust
kts
07/05:30am 22.7 23.6 22.7 100 0.0 SE 22 37 12 20 1005.3 1003.7 31.2
07/05:00am 23.7 25.8 23.7 100 0.0 SSE 19 35 10 19 1005.3 1003.7 27.0
07/04:30am 23.7 26.1 23.7 100 0.0 SE 17 37 9 20 1005.1 1003.5 23.6
07/04:00am 23.6 26.0 23.6 100 0.0 ESE 17 33 9 18 1005.9 1004.3 21.8
07/03:46am 23.8 25.9 23.8 100 0.0 ESE 19 33 10 18 1005.7 1004.1 21.6
07/03:45am 23.8 25.9 23.8 100 0.0 ESE 19 30 10 16 1005.7 1004.1 21.6
07/03:30am 23.5 25.4 23.5 100 0.0 ESE 19 33 10 18 1005.9 1004.3 21.6
07/03:00am 23.7 26.5 23.7 100 0.0 ESE 15 24 8 13 1006.2 1004.6 18.6
07/02:59am 23.8 26.3 23.8 100 0.0 ESE 17 28 9 15 1006.3 1004.7 18.6
07/02:46am 24.1 27.2 24.1 100 0.0 ESE 15 22 8 12 1006.3 1004.7 18.6
07/02:37am 23.9 26.8 23.9 100 0.0 ESE 15 24 8 13 1006.4 1004.8 18.6
07/02:30am 23.8 26.3 23.8 100 0.0 E 17 26 9 14 1006.4 1004.8 18.6
07/02:29am 23.8 26.3 23.8 100 0.0 E 17 26 9 14 1006.5 1004.9 18.6
07/02:00am 23.8 27.4 23.8 100 0.0 E 11 17 6 9 1006.9 1005.3 18.6
07/01:30am 23.8 27.4 23.8 100 0.0 SE 11 17 6 9 1007.2 1005.6 18.2
07/01:00am 23.7 27.3 23.7 100 0.0 ESE 11 19 6 10 1007.7 1006.1 17.6
07/12:30am 24.3 26.0 24.1 99 0.1 ENE 22 33 12 18 1008.3 1006.7 12.6
07/12:12am 24.3 27.0 24.1 99 0.1 ESE 17 32 9 17 1008.4 1006.8 5.6
07/12:08am 24.3 27.4 24.1 99 0.1 ESE 15 24 8 13 1008.3 1006.7 5.0
07/12:00am 24.3 27.4 24.1 99 0.1 ESE 15 20 8 11 1008.4 1006.8 3.2
 
Date/Time
WST
Temp
°C
App
Temp
°C
Dew
Point
°C
Rel
Hum
%
Delta-T
°C
Wind Press
QNH
hPa
Press
MSL
hPa
Rain since
9am
mm
Dir  Spd
km/h
Gust
km/h
Spd
kts
Gust
kts
06/11:50pm 24.3 27.0 24.1 99 0.1 ESE 17 20 9 11 1008.5 1006.9 3.0
06/11:30pm 24.3 27.4 24.1 99 0.1 ESE 15 24 8 13 1008.9 1007.3 2.8
06/11:17pm 24.1 26.3 23.9 99 0.1 ESE 19 26 10 14 1008.9 1007.3 2.8
06/11:00pm 24.1 26.0 23.8 98 0.2 E 20 33 11 18 1009.2 1007.6 2.8
06/10:32pm 24.6 26.9 24.1 97 0.3 E 19 28 10 15 1009.0 1007.4 2.0
06/10:30pm 25.0 27.9 24.5 97 0.3 ESE 17 24 9 13 1009.0 1007.4 0.4
06/10:00pm 24.7 27.6 24.4 98 0.2 ESE 17 26 9 14 1009.2 1007.6 0.0
06/09:30pm 24.6 27.7 24.1 97 0.3 ESE 15 20 8 11 1009.0 1007.4 0.0
06/09:00pm 24.5 27.5 24.0 97 0.3 ESE 15 20 8 11 1009.0 1007.4 0.0
06/08:30pm 24.4 28.0 23.7 96 0.5 ESE 11 17 6 9 1008.9 1007.3 0.0
06/08:22pm 24.4 27.6 23.7 96 0.5 ESE 13 19 7 10 1008.8 1007.2 0.0
06/08:02pm 24.7 28.3 23.8 95 0.6 E 11 17 6 9 1008.7 1007.1 0.0
06/08:00pm 24.7 28.3 23.8 95 0.6 E 11 17 6 9 1008.7 1007.1 0.0
06/07:30pm 24.8 27.9 23.6 93 0.8 ENE 13 20 7 11 1008.4 1006.8 0.0
06/07:00pm 25.1 28.0 23.2 89 1.3 NE 13 19 7 10 1008.3 1006.7 0.0
06/06:30pm 25.5 28.5 23.4 88 1.4 NE 13 20 7 11 1008.2 1006.6 0.0
06/06:00pm 25.6 29.2 23.7 89 1.3 NNE 11 15 6 8 1008.0 1006.3 0.0
06/05:55pm 25.6 29.2 23.7 89 1.3 N 11 15 6 8 1007.9 1006.2 0.0
06/05:44pm 25.7 29.2 23.6 88 1.4 NE 11 17 6 9 1007.9 1006.2 0.0
06/05:30pm 25.5 28.7 23.7 90 1.2 NE 13 19 7 10 1007.9 1006.2 0.0
06/05:00pm 26.1 29.0 23.2 84 2.0 ENE 13 20 7 11 1007.7 1006.1 0.0
06/04:30pm 26.8 29.5 22.8 79 2.7 NE 13 17 7 9 1007.7 1006.1 0.0
06/04:10pm 26.8 30.0 23.1 80 2.5 NNE 11 19 6 10 1007.9 1006.2 0.0
06/04:00pm 26.8 29.7 23.1 80 2.5 NE 13 20 7 11 1008.0 1006.3 0.0
06/03:30pm 28.0 30.3 22.7 73 3.6 N 15 20 8 11 1008.1 1006.5 0.0
06/03:00pm 27.8 29.5 22.3 72 3.8 N 17 24 9 13 1008.6 1007.0 0.0
06/02:30pm 27.8 29.9 22.5 73 3.6 N 15 20 8 11 1009.1 1007.5 0.0
06/02:00pm 28.8 31.0 23.2 71 3.9 N 17 22 9 12 1009.4 1007.8 0.0
06/01:30pm 27.7 29.7 22.9 75 3.3 N 17 22 9 12 1009.6 1008.0 0.0
06/01:00pm 27.2 29.9 22.2 74 3.4 NNW 11 20 6 11 1009.8 1008.2 0.0
06/12:30pm 27.1 29.8 22.1 74 3.4 NW 11 17 6 9 1009.9 1008.3 0.0
06/12:00pm 26.7 28.7 22.3 77 3.0 NNW 15 26 8 14 1010.1 1008.5 0.0
06/11:30am 25.9 28.8 23.2 85 1.9 NW 13 24 7 13 1010.5 1008.9 0.0
06/11:00am 25.6 28.7 24.2 92 1.0 N 15 22 8 12 1010.7 1009.1 0.0
06/10:30am 25.2 29.9 24.3 95 0.6 NNW 7 11 4 6 1010.8 1009.2 0.0
06/10:00am 24.2 28.0 23.5 96 0.5 NNW 9 13 5 7 1011.2 1009.6 6.8
06/09:52am 24.1 27.1 23.4 96 0.5 N 13 20 7 11 1011.3 1009.7 6.8
06/09:30am 24.4 28.8 23.5 95 0.6 NNW 6 9 3 5 1011.4 1009.8 5.4
06/09:11am 24.7 28.3 23.7 94 0.7 N 11 19 6 10 1011.4 1009.8 2.4
06/09:01am 25.1 29.3 24.1 94 0.7 N 9 11 5 6 1011.3 1009.7 2.0
06/09:00am 25.1 29.3 24.1 94 0.7 N 9 11 5 6 1011.3 1009.7 2.0
06/08:30am 25.3 29.3 24.4 95 0.6 N 11 15 6 8 1011.0 1009.4 2.0
06/08:00am 24.6 29.1 23.9 96 0.5 NNW 7 9 4 5 1010.8 1009.2 2.0
06/07:30am 24.1 28.4 23.6 97 0.3 NNW 7 9 4 5 1010.8 1009.2 2.0
06/07:00am 23.7 27.9 23.4 98 0.2 NNW 7 11 4 6 1010.6 1009.0 2.0
06/06:30am 23.6 27.6 23.1 97 0.3 NNW 7 9 4 5 1010.3 1008.7 2.0
06/06:00am 23.5 27.1 23.0 97 0.3 NW 9 13 5 7 1010.0 1008.4 2.0
06/05:30am 23.4 26.9 22.9 97 0.3 NW 9 15 5 8 1009.7 1008.1 2.0
06/05:00am 23.5 27.6 23.2 98 0.2 NW 7 11 4 6 1009.5 1007.9 2.0
06/04:44am 23.6 27.3 23.3 98 0.2 NW 9 15 5 8 1009.5 1007.9 2.0
06/04:34am 23.7 27.5 23.4 98 0.2 NW 9 17 5 9 1009.5 1007.9 2.0
06/04:33am 23.7 27.5 23.4 98 0.2 NW 9 17 5 9 1009.5 1007.9 2.0
06/04:30am 23.7 27.1 23.4 98 0.2 NW 11 17 6 9 1009.5 1007.9 2.0
06/04:00am 23.7 27.5 23.4 98 0.2 NNW 9 19 5 10 1009.7 1008.1 2.0
06/03:51am 23.6 27.3 23.3 98 0.2 NW 9 13 5 7 1009.8 1008.2 2.0
06/03:30am 23.5 27.6 23.2 98 0.2 NW 7 13 4 7 1009.8 1008.2 1.8
06/03:00am 23.5 27.6 23.2 98 0.2 NNW 7 11 4 6 1010.0 1008.4 1.4
06/02:30am 23.5 27.2 23.2 98 0.2 NW 9 15 5 8 1010.2 1008.6 1.0
06/02:00am 23.4 28.4 23.2 99 0.1 NNW 2 11 1 6 1010.6 1009.0 0.8
06/01:42am 23.6 28.7 23.4 99 0.1 SW 2 7 1 4 1010.9 1009.3 0.8
06/01:30am 23.6 28.3 23.4 99 0.1 SW 4 9 2 5 1011.1 1009.5 0.8
06/01:25am 23.8 29.0 23.6 99 0.1 SW 2 6 1 3 1011.1 1009.5 0.8
06/01:00am 23.7 28.9 23.5 99 0.1 SW 2 6 1 3 1011.5 1010.0 0.6
06/12:30am 23.6 27.8 23.4 99 0.1 SW 7 9 4 5 1011.7 1010.2 0.6
06/12:00am 23.6 29.1 23.4 99 0.1 CALM 0 0 0 0 1012.3 1010.7 0.6
 
Date/Time
WST
Temp
°C
App
Temp
°C
Dew
Point
°C
Rel
Hum
%
Delta-T
°C
Wind Press
QNH
hPa
Press
MSL
hPa
Rain since
9am
mm
Dir  Spd
km/h
Gust
km/h
Spd
kts
Gust
kts
05/11:57pm 23.6 29.1 23.4 99 0.1 CALM 0 0 0 0 1012.3 1010.7 0.6
05/11:30pm 23.8 28.3 23.6 99 0.1 SW 6 6 3 3 1012.5 1010.9 0.6
05/11:00pm 23.3 28.6 23.1 99 0.1 CALM 0 6 0 3 1012.5 1010.9 0.6
05/10:49pm 23.2 28.5 23.0 99 0.1 CALM 0 0 0 0 1012.5 1010.9 0.6
05/10:30pm 23.2 28.5 23.0 99 0.1 CALM 0 0 0 0 1012.3 1010.7 0.6
05/10:08pm 23.5 28.9 23.3 99 0.1 CALM 0 0 0 0 1012.3 1010.7 0.6
05/10:00pm 23.4 28.3 23.1 98 0.2 SW 2 7 1 4 1012.3 1010.7 0.6
05/09:30pm 23.5 28.9 23.2 98 0.2 CALM 0 0 0 0 1012.1 1010.5 0.6
05/09:12pm 23.5 28.9 23.2 98 0.2 CALM 0 0 0 0 1012.0 1010.4 0.6
05/09:06pm 23.4 28.7 23.1 98 0.2 CALM 0 0 0 0 1012.0 1010.4 0.6
05/09:00pm 23.4 28.7 23.1 98 0.2 CALM 0 0 0 0 1011.9 1010.3 0.6
05/08:30pm 23.4 28.7 23.1 98 0.2 CALM 0 0 0 0 1012.0 1010.4 0.6
05/08:00pm 23.4 28.7 23.1 98 0.2 CALM 0 0 0 0 1011.5 1010.0 0.6
05/07:34pm 23.7 29.1 23.2 97 0.3 CALM 0 0 0 0 1010.9 1009.3 0.6
05/07:30pm 23.6 28.9 23.1 97 0.3 CALM 0 0 0 0 1010.8 1009.2 0.6
05/07:07pm 23.7 29.1 23.2 97 0.3 CALM 0 0 0 0 1010.4 1008.8 0.6
05/07:00pm 23.7 29.1 23.2 97 0.3 CALM 0 4 0 2 1010.3 1008.7 0.6
05/06:52pm 23.7 27.9 23.2 97 0.3 SW 6 11 3 6 1010.2 1008.6 0.6
05/06:30pm 23.8 28.5 23.3 97 0.3 W 4 7 2 4 1009.9 1008.3 0.6
05/06:00pm 23.8 27.9 23.3 97 0.3 NW 7 13 4 7 1010.0 1008.4 0.6
05/05:30pm 23.7 27.4 23.2 97 0.3 NNW 9 15 5 8 1009.9 1008.3 0.6
05/05:00pm 23.9 28.1 23.4 97 0.3 NNW 7 13 4 7 1009.9 1008.3 0.6
05/04:32pm 23.8 27.2 23.3 97 0.3 NW 11 17 6 9 1010.0 1008.4 0.6
05/04:30pm 23.8 27.2 23.3 97 0.3 NW 11 17 6 9 1010.0 1008.4 0.6
05/04:00pm 23.5 26.6 22.8 96 0.5 WNW 11 19 6 10 1010.1 1008.5 0.6
05/03:30pm 23.9 27.0 22.9 94 0.7 NW 11 20 6 11 1010.2 1008.6 0.0
05/03:21pm 24.1 27.2 22.9 93 0.8 NW 11 17 6 9 1010.2 1008.6 0.0
05/03:00pm 25.1 29.9 23.5 91 1.1 ESE 4 9 2 5 1010.3 1008.7 0.0
05/02:30pm 24.9 29.7 23.5 92 1.0 SE 4 11 2 6 1010.5 1008.9 0.0
05/02:06pm 24.9 29.0 23.3 91 1.1 ESE 7 11 4 6 1010.7 1009.1 0.0
05/02:00pm 24.9 28.6 23.3 91 1.1 ESE 9 11 5 6 1010.8 1009.2 0.0
05/01:53pm 24.9 28.3 23.3 91 1.1 E 11 15 6 8 1010.9 1009.3 0.0
05/01:30pm 25.1 28.5 23.3 90 1.2 ESE 11 15 6 8 1011.1 1009.5 0.0
05/01:00pm 25.5 29.3 24.1 92 1.0 ENE 11 13 6 7 1011.4 1009.8 0.0
05/12:30pm 25.7 29.8 24.5 93 0.8 E 11 15 6 8 1011.6 1010.1 0.0
05/12:11pm 24.8 28.4 23.8 94 0.7 E 11 13 6 7 1011.7 1010.2 0.0
05/12:00pm 24.9 28.9 23.7 93 0.8 E 9 17 5 9 1012.0 1010.4 0.0
05/11:30am 24.6 28.3 23.9 96 0.5 E 11 13 6 7 1012.3 1010.7 0.0
05/11:28am 24.5 28.1 23.8 96 0.5 E 11 15 6 8 1012.3 1010.7 0.0
05/11:24am 24.6 28.3 23.9 96 0.5 E 11 17 6 9 1012.3 1010.7 0.0
05/11:00am 24.5 28.0 23.6 95 0.6 E 11 13 6 7 1012.6 1011.0 0.0
05/10:58am 24.5 28.0 23.6 95 0.6 E 11 13 6 7 1012.7 1011.1 0.0
05/10:30am 25.3 29.9 24.1 93 0.8 SE 7 9 4 5 1012.9 1011.3 0.0
05/10:17am 25.7 31.0 24.3 92 1.0 SE 4 11 2 6 1012.9 1011.3 0.0
05/10:00am 25.5 31.6 24.5 94 0.7 CALM 0 0 0 0 1012.9 1011.3 35.0
05/09:35am 24.3 30.0 23.8 97 0.3 CALM 0 0 0 0 1012.9 1011.3 35.0
05/09:34am 24.2 29.9 23.7 97 0.3 CALM 0 0 0 0 1012.9 1011.3 35.0
05/09:30am 24.3 30.0 23.8 97 0.3 CALM 0 0 0 0 1013.0 1011.4 35.0
05/09:12am 23.9 29.4 23.4 97 0.3 CALM 0 0 0 0 1013.0 1011.4 34.8
05/09:00am 23.8 29.2 23.3 97 0.3 CALM 0 0 0 0 1012.9 1011.3 34.4
05/08:52am 24.1 29.8 23.8 98 0.2 CALM 0 0 0 0 1012.8 1011.2 34.2
05/08:30am 24.1 28.7 23.8 98 0.2 SE 6 9 3 5 1012.5 1010.9 33.8
05/08:00am 23.8 28.7 23.6 99 0.1 ESE 4 6 2 3 1012.3 1010.7 33.8
05/07:30am 23.3 27.5 23.1 99 0.1 ESE 6 7 3 4 1012.3 1010.7 33.8
05/07:00am 23.3 28.7 23.3 100 0.0 CALM 0 0 0 0 1011.9 1010.3 33.8
05/06:57am 23.3 28.6 23.1 99 0.1 CALM 0 0 0 0 1011.7 1010.2 33.8
05/06:35am 23.2 28.5 23.0 99 0.1 CALM 0 0 0 0 1011.6 1010.1 33.8
05/06:33am 23.2 28.6 23.2 100 0.0 CALM 0 0 0 0 1011.6 1010.1 33.6
05/06:30am 23.2 28.5 23.0 99 0.1 CALM 0 0 0 0 1011.6 1010.1 33.6
05/06:00am 23.2 26.8 23.0 99 0.1 E 9 11 5 6 1011.4 1009.8 33.6
05/05:52am 23.3 27.6 23.3 100 0.0 NE 6 9 3 5 1011.4 1009.8 33.6
05/05:38am 23.4 28.5 23.4 100 0.0 SE 2 7 1 4 1011.2 1009.6 33.6
05/05:30am 23.1 28.3 22.9 99 0.1 CALM 0 0 0 0 1011.1 1009.5 33.6
05/05:26am 23.1 28.3 22.9 99 0.1 CALM 0 0 0 0 1011.1 1009.5 33.6
05/05:00am 23.1 28.3 22.9 99 0.1 CALM 0 0 0 0 1011.0 1009.4 33.6
05/04:30am 23.1 28.3 22.9 99 0.1 CALM 0 0 0 0 1010.9 1009.3 33.6
05/04:00am 23.0 28.2 22.8 99 0.1 CALM 0 0 0 0 1010.9 1009.3 33.6
05/03:32am 23.0 28.2 22.8 99 0.1 CALM 0 0 0 0 1010.9 1009.3 33.6
05/03:30am 23.0 28.2 22.8 99 0.1 CALM 0 0 0 0 1010.9 1009.3 33.6
05/03:18am 22.9 28.0 22.7 99 0.1 CALM 0 0 0 0 1010.9 1009.3 33.6
05/03:11am 22.9 28.0 22.7 99 0.1 CALM 0 0 0 0 1011.0 1009.4 33.6
05/03:00am 22.9 28.0 22.7 99 0.1 CALM 0 0 0 0 1011.2 1009.6 33.6
05/02:37am 22.8 27.9 22.6 99 0.1 CALM 0 0 0 0 1011.3 1009.7 33.6
05/02:30am 22.8 27.9 22.6 99 0.1 CALM 0 0 0 0 1011.3 1009.7 33.6
05/02:26am 22.8 27.9 22.6 99 0.1 CALM 0 0 0 0 1011.3 1009.7 33.6
05/02:01am 22.8 27.9 22.6 99 0.1 CALM 0 0 0 0 1011.7 1010.2 33.6
05/02:00am 22.8 27.9 22.6 99 0.1 CALM 0 0 0 0 1011.7 1010.2 33.6
05/01:30am 22.9 28.0 22.7 99 0.1 CALM 0 0 0 0 1012.1 1010.5 33.6
05/01:00am 22.8 27.9 22.6 99 0.1 CALM 0 0 0 0 1012.5 1010.9 33.6
05/12:30am 22.9 28.0 22.7 99 0.1 CALM 0 0 0 0 1013.2 1011.6 33.6
05/12:00am 22.8 27.9 22.6 99 0.1 CALM 0 0 0 0 1013.6 1012.0 33.6
 
Date/Time
WST
Temp
°C
App
Temp
°C
Dew
Point
°C
Rel
Hum
%
Delta-T
°C
Wind Press
QNH
hPa
Press
MSL
hPa
Rain since
9am
mm
Dir  Spd
km/h
Gust
km/h
Spd
kts
Gust
kts
04/11:30pm 23.0 28.2 22.8 99 0.1 CALM 0 0 0 0 1014.0 1012.4 33.6
04/11:00pm 23.2 28.4 22.9 98 0.2 CALM 0 0 0 0 1014.0 1012.4 33.6
04/10:30pm 23.4 28.7 23.1 98 0.2 CALM 0 9 0 5 1013.8 1012.2 33.6
04/10:00pm 23.3 28.6 23.0 98 0.2 CALM 0 0 0 0 1013.6 1012.0 33.6
04/09:52pm 23.3 28.6 23.0 98 0.2 CALM 0 0 0 0 1013.5 1011.9 33.6
04/09:30pm 23.3 28.6 23.0 98 0.2 CALM 0 0 0 0 1013.3 1011.7 33.6
04/09:00pm 23.2 28.3 22.7 97 0.3 CALM 0 0 0 0 1013.0 1011.4 33.6
04/08:39pm 23.2 28.3 22.7 97 0.3 CALM 0 0 0 0 1012.9 1011.3 33.6
04/08:30pm 23.1 28.2 22.6 97 0.3 CALM 0 6 0 3 1012.7 1011.1 33.6
04/08:00pm 23.3 28.4 22.6 96 0.5 CALM 0 6 0 3 1012.4 1010.8 33.6
04/07:30pm 23.3 28.3 22.5 95 0.5 CALM 0 6 0 3 1012.2 1010.6 33.6
04/07:00pm 23.4 27.2 22.4 94 0.7 SE 6 7 3 4 1012.0 1010.4 33.6
04/06:30pm 23.6 27.4 22.4 93 0.8 SE 6 9 3 5 1011.9 1010.3 33.6
04/06:00pm 24.0 27.3 22.6 92 0.9 SE 9 13 5 7 1011.6 1010.1 33.6
04/05:30pm 24.1 28.1 23.1 94 0.7 SSW 7 11 4 6 1011.4 1009.8 33.6
04/05:00pm 23.9 28.0 23.0 95 0.6 SW 6 7 3 4 1010.9 1009.3 33.6
04/04:30pm 23.4 27.3 22.9 97 0.3 SW 7 11 4 6 1010.9 1009.3 33.6
04/04:00pm 22.7 26.3 22.4 98 0.2 S 7 13 4 7 1011.0 1009.4 33.6
04/03:30pm 22.4 26.1 22.2 99 0.1 ESE 6 7 3 4 1011.4 1009.8 33.6
04/03:24pm 22.3 25.9 22.1 99 0.1 SSE 6 7 3 4 1011.5 1010.0 33.4
04/03:00pm 22.0 25.5 21.8 99 0.1 SSW 6 9 3 5 1011.9 1010.3 32.2
04/02:30pm 22.5 26.2 22.3 99 0.1 SSW 6 9 3 5 1012.0 1010.4 28.0
04/02:00pm 22.4 25.9 22.1 98 0.2 SW 7 15 4 8 1012.2 1010.6 22.4
04/01:30pm 22.6 25.4 22.3 98 0.2 WSW 11 17 6 9 1012.4 1010.8 11.0
04/01:28pm 22.6 25.8 22.3 98 0.2 WSW 9 17 5 9 1012.4 1010.8 10.8
04/01:00pm 23.4 28.0 23.1 98 0.2 SSW 4 15 2 8 1012.9 1011.3 5.6
04/12:30pm 24.1 29.9 23.9 99 0.1 CALM 0 0 0 0 1013.1 1011.5 4.0
04/12:29pm 24.0 29.7 23.8 99 0.1 CALM 0 0 0 0 1013.1 1011.5 4.0
04/12:01pm 23.8 28.7 23.6 99 0.1 SSW 4 9 2 5 1013.5 1011.9 1.0
04/12:00pm 24.0 29.0 23.8 99 0.1 SSW 4 9 2 5 1013.5 1011.9 1.0
04/11:44am 23.9 28.0 23.9 100 0.0 SE 9 15 5 8 1013.5 1011.9 0.2
04/11:30am 23.6 27.1 23.6 100 0.0 ESE 11 15 6 8 1013.3 1011.7 0.2
04/11:16am 23.2 26.5 23.2 100 0.0 ESE 11 13 6 7 1013.4 1011.8 0.2
04/11:00am 23.1 26.3 23.1 100 0.0 ESE 11 17 6 9 1013.7 1012.1 0.2
04/10:40am 23.2 25.7 23.2 100 0.0 SE 15 24 8 13 1014.0 1012.4 0.0
04/10:39am 23.2 25.7 23.2 100 0.0 SE 15 24 8 13 1014.0 1012.4 0.0
04/10:30am 23.1 25.2 23.1 100 0.0 SE 17 24 9 13 1014.0 1012.4 0.0
04/10:18am 23.4 25.7 23.4 100 0.0 ESE 17 28 9 15 1014.0 1012.4 0.0
04/10:17am 23.5 26.2 23.5 100 0.0 ESE 15 28 8 15 1014.0 1012.4 0.0
04/10:14am 23.6 26.4 23.6 100 0.0 ESE 15 20 8 11 1014.0 1012.4 0.0
04/10:00am 23.6 26.7 23.6 100 0.0 SE 13 20 7 11 1014.0 1012.4 10.2
04/09:30am 23.3 25.9 23.3 100 0.0 ESE 15 22 8 12 1013.8 1012.2 10.0
04/09:00am 23.0 26.2 23.0 100 0.0 SE 11 20 6 11 1013.8 1012.2 9.8
04/08:30am 23.2 26.1 23.2 100 0.0 SE 13 22 7 12 1013.5 1011.9 9.0
04/08:10am 23.2 26.5 23.2 100 0.0 SSE 11 24 6 13 1013.2 1011.6 8.0
04/08:00am 23.1 26.7 23.1 100 0.0 S 9 17 5 9 1013.0 1011.4 7.4
04/07:48am 23.0 26.6 23.0 100 0.0 S 9 19 5 10 1012.9 1011.3 7.2
04/07:30am 23.2 26.4 23.0 99 0.1 SSE 11 20 6 11 1012.5 1010.9 7.0
04/07:00am 23.1 26.2 22.9 99 0.1 SSE 11 17 6 9 1012.0 1010.4 5.8

Other formats

Comma delimited format used in spreadsheet applications
http://www.bom.gov.au/fwo/IDW60801/IDW60801.96995.axf

JavaScript Object Notation format (JSON) in row-major order
http://www.bom.gov.au/fwo/IDW60801/IDW60801.96995.json

Data quality

Most of these data are generated automatically and are frequently updated. Quality checks on data are not normally performed. It is possible for incorrect values to appear. Refer to information at About Latest Weather Observations and please check the disclaimer before using these data.